sensor_id;sensor_type;location;lat;lon;timestamp;P1;durP1;ratioP1;P2;durP2;ratioP2
9496;SDS011;4786;51.270;4.456;2023-07-16T00:01:46;9.37;;;3.47;;
9496;SDS011;4786;51.270;4.456;2023-07-16T00:04:12;9.03;;;3.00;;
9496;SDS011;4786;51.270;4.456;2023-07-16T00:06:38;9.90;;;3.50;;
9496;SDS011;4786;51.270;4.456;2023-07-16T00:09:04;9.70;;;3.23;;
9496;SDS011;4786;51.270;4.456;2023-07-16T00:11:30;7.13;;;3.10;;
9496;SDS011;4786;51.270;4.456;2023-07-16T00:13:57;9.73;;;3.33;;
9496;SDS011;4786;51.270;4.456;2023-07-16T00:16:22;10.50;;;3.58;;
9496;SDS011;4786;51.270;4.456;2023-07-16T00:18:48;5.20;;;3.07;;
9496;SDS011;4786;51.270;4.456;2023-07-16T00:21:13;6.77;;;3.23;;
9496;SDS011;4786;51.270;4.456;2023-07-16T00:23:39;9.17;;;3.30;;
9496;SDS011;4786;51.270;4.456;2023-07-16T00:26:05;6.60;;;2.80;;
9496;SDS011;4786;51.270;4.456;2023-07-16T00:28:31;6.60;;;3.37;;
9496;SDS011;4786;51.270;4.456;2023-07-16T00:30:57;8.13;;;3.25;;
9496;SDS011;4786;51.270;4.456;2023-07-16T00:33:24;8.27;;;3.50;;
9496;SDS011;4786;51.270;4.456;2023-07-16T00:35:50;7.80;;;3.20;;
9496;SDS011;4786;51.270;4.456;2023-07-16T00:38:19;9.00;;;3.30;;
9496;SDS011;4786;51.270;4.456;2023-07-16T00:40:46;5.97;;;3.23;;
9496;SDS011;4786;51.270;4.456;2023-07-16T00:43:12;5.47;;;2.93;;
9496;SDS011;4786;51.270;4.456;2023-07-16T00:45:38;6.80;;;3.20;;
9496;SDS011;4786;51.270;4.456;2023-07-16T00:48:05;5.70;;;3.07;;
9496;SDS011;4786;51.270;4.456;2023-07-16T00:50:33;9.63;;;2.88;;
9496;SDS011;4786;51.270;4.456;2023-07-16T00:53:04;6.88;;;3.28;;
9496;SDS011;4786;51.270;4.456;2023-07-16T00:55:37;7.18;;;3.08;;
9496;SDS011;4786;51.270;4.456;2023-07-16T00:58:05;8.27;;;3.50;;
9496;SDS011;4786;51.270;4.456;2023-07-16T01:00:33;7.60;;;3.17;;
9496;SDS011;4786;51.270;4.456;2023-07-16T01:03:04;8.87;;;3.70;;
9496;SDS011;4786;51.270;4.456;2023-07-16T01:05:36;9.17;;;3.27;;
9496;SDS011;4786;51.270;4.456;2023-07-16T01:08:07;6.70;;;3.50;;
9496;SDS011;4786;51.270;4.456;2023-07-16T01:10:35;5.63;;;2.90;;
9496;SDS011;4786;51.270;4.456;2023-07-16T01:13:03;6.07;;;3.20;;
9496;SDS011;4786;51.270;4.456;2023-07-16T01:15:30;7.80;;;3.33;;
9496;SDS011;4786;51.270;4.456;2023-07-16T01:17:55;11.13;;;3.37;;
9496;SDS011;4786;51.270;4.456;2023-07-16T01:20:22;8.57;;;3.10;;
9496;SDS011;4786;51.270;4.456;2023-07-16T01:25:48;9.77;;;3.47;;
9496;SDS011;4786;51.270;4.456;2023-07-16T01:28:38;6.67;;;3.07;;
9496;SDS011;4786;51.270;4.456;2023-07-16T01:31:15;9.70;;;3.23;;
9496;SDS011;4786;51.270;4.456;2023-07-16T01:33:43;10.97;;;3.20;;
9496;SDS011;4786;51.270;4.456;2023-07-16T01:36:10;9.07;;;3.43;;
9496;SDS011;4786;51.270;4.456;2023-07-16T01:38:37;7.13;;;3.30;;
9496;SDS011;4786;51.270;4.456;2023-07-16T01:41:03;6.90;;;2.90;;
9496;SDS011;4786;51.270;4.456;2023-07-16T01:43:29;7.53;;;3.33;;
9496;SDS011;4786;51.270;4.456;2023-07-16T01:45:55;8.27;;;3.17;;
9496;SDS011;4786;51.270;4.456;2023-07-16T01:48:28;8.07;;;3.47;;
9496;SDS011;4786;51.270;4.456;2023-07-16T01:50:59;7.53;;;3.23;;
9496;SDS011;4786;51.270;4.456;2023-07-16T01:53:25;7.60;;;3.10;;
9496;SDS011;4786;51.270;4.456;2023-07-16T01:55:51;9.17;;;3.20;;
9496;SDS011;4786;51.270;4.456;2023-07-16T01:58:17;8.87;;;3.03;;
9496;SDS011;4786;51.270;4.456;2023-07-16T02:00:42;6.80;;;3.40;;
9496;SDS011;4786;51.270;4.456;2023-07-16T02:03:08;7.77;;;3.70;;
9496;SDS011;4786;51.270;4.456;2023-07-16T02:05:34;9.80;;;3.73;;
9496;SDS011;4786;51.270;4.456;2023-07-16T02:08:00;5.43;;;3.40;;
9496;SDS011;4786;51.270;4.456;2023-07-16T02:10:26;8.13;;;3.90;;
9496;SDS011;4786;51.270;4.456;2023-07-16T02:12:52;10.00;;;3.60;;
9496;SDS011;4786;51.270;4.456;2023-07-16T02:15:18;8.83;;;3.77;;
9496;SDS011;4786;51.270;4.456;2023-07-16T02:17:44;9.83;;;3.37;;
9496;SDS011;4786;51.270;4.456;2023-07-16T02:20:11;5.73;;;3.53;;
9496;SDS011;4786;51.270;4.456;2023-07-16T02:22:37;8.63;;;3.60;;
9496;SDS011;4786;51.270;4.456;2023-07-16T02:25:03;8.07;;;3.10;;
9496;SDS011;4786;51.270;4.456;2023-07-16T02:27:30;9.43;;;3.77;;
9496;SDS011;4786;51.270;4.456;2023-07-16T02:29:56;7.33;;;3.10;;
9496;SDS011;4786;51.270;4.456;2023-07-16T02:32:22;10.83;;;3.30;;
9496;SDS011;4786;51.270;4.456;2023-07-16T02:34:49;8.10;;;3.60;;
9496;SDS011;4786;51.270;4.456;2023-07-16T02:37:15;7.23;;;3.40;;
9496;SDS011;4786;51.270;4.456;2023-07-16T02:39:41;8.03;;;3.10;;
9496;SDS011;4786;51.270;4.456;2023-07-16T02:42:08;8.57;;;3.53;;
9496;SDS011;4786;51.270;4.456;2023-07-16T02:44:34;10.90;;;3.70;;
9496;SDS011;4786;51.270;4.456;2023-07-16T02:47:03;7.77;;;3.83;;
9496;SDS011;4786;51.270;4.456;2023-07-16T02:49:29;8.27;;;3.90;;
9496;SDS011;4786;51.270;4.456;2023-07-16T02:51:56;7.77;;;3.70;;
9496;SDS011;4786;51.270;4.456;2023-07-16T02:54:21;8.57;;;4.30;;
9496;SDS011;4786;51.270;4.456;2023-07-16T02:56:47;9.97;;;4.30;;
9496;SDS011;4786;51.270;4.456;2023-07-16T02:59:14;6.33;;;3.80;;
9496;SDS011;4786;51.270;4.456;2023-07-16T03:01:40;8.03;;;4.63;;
9496;SDS011;4786;51.270;4.456;2023-07-16T03:04:05;10.23;;;4.43;;
9496;SDS011;4786;51.270;4.456;2023-07-16T03:06:31;9.37;;;4.07;;
9496;SDS011;4786;51.270;4.456;2023-07-16T03:08:58;8.40;;;4.30;;
9496;SDS011;4786;51.270;4.456;2023-07-16T03:11:24;7.43;;;4.50;;
9496;SDS011;4786;51.270;4.456;2023-07-16T03:13:50;8.70;;;4.53;;
9496;SDS011;4786;51.270;4.456;2023-07-16T03:16:16;8.43;;;4.30;;
9496;SDS011;4786;51.270;4.456;2023-07-16T03:18:43;7.40;;;4.63;;
9496;SDS011;4786;51.270;4.456;2023-07-16T03:21:10;7.40;;;4.47;;
9496;SDS011;4786;51.270;4.456;2023-07-16T03:23:36;8.83;;;4.37;;
9496;SDS011;4786;51.270;4.456;2023-07-16T03:26:02;10.00;;;4.30;;
9496;SDS011;4786;51.270;4.456;2023-07-16T03:28:28;12.57;;;4.33;;
9496;SDS011;4786;51.270;4.456;2023-07-16T03:30:53;14.87;;;4.73;;
9496;SDS011;4786;51.270;4.456;2023-07-16T03:33:19;9.03;;;4.50;;
9496;SDS011;4786;51.270;4.456;2023-07-16T03:35:46;6.43;;;4.37;;
9496;SDS011;4786;51.270;4.456;2023-07-16T03:38:12;10.40;;;4.70;;
9496;SDS011;4786;51.270;4.456;2023-07-16T03:40:39;7.13;;;4.60;;
9496;SDS011;4786;51.270;4.456;2023-07-16T03:43:07;10.37;;;5.00;;
9496;SDS011;4786;51.270;4.456;2023-07-16T03:45:33;10.10;;;5.17;;
9496;SDS011;4786;51.270;4.456;2023-07-16T03:47:59;12.03;;;4.77;;
9496;SDS011;4786;51.270;4.456;2023-07-16T03:50:25;6.30;;;4.53;;
9496;SDS011;4786;51.270;4.456;2023-07-16T03:52:51;9.73;;;5.20;;
9496;SDS011;4786;51.270;4.456;2023-07-16T03:55:17;7.63;;;4.93;;
9496;SDS011;4786;51.270;4.456;2023-07-16T03:57:43;10.40;;;4.70;;
9496;SDS011;4786;51.270;4.456;2023-07-16T04:00:10;9.50;;;5.10;;
9496;SDS011;4786;51.270;4.456;2023-07-16T04:02:36;7.17;;;4.83;;
9496;SDS011;4786;51.270;4.456;2023-07-16T04:05:02;8.80;;;4.97;;
9496;SDS011;4786;51.270;4.456;2023-07-16T04:07:29;11.30;;;5.53;;
9496;SDS011;4786;51.270;4.456;2023-07-16T04:09:54;7.93;;;5.30;;
9496;SDS011;4786;51.270;4.456;2023-07-16T04:12:20;11.17;;;5.20;;
9496;SDS011;4786;51.270;4.456;2023-07-16T04:14:46;8.53;;;5.47;;
9496;SDS011;4786;51.270;4.456;2023-07-16T04:17:12;9.13;;;5.53;;
9496;SDS011;4786;51.270;4.456;2023-07-16T04:19:39;9.77;;;5.50;;
9496;SDS011;4786;51.270;4.456;2023-07-16T04:22:05;9.23;;;5.73;;
9496;SDS011;4786;51.270;4.456;2023-07-16T04:24:31;10.23;;;5.27;;
9496;SDS011;4786;51.270;4.456;2023-07-16T04:26:58;9.20;;;5.50;;
9496;SDS011;4786;51.270;4.456;2023-07-16T04:29:25;7.57;;;5.23;;
9496;SDS011;4786;51.270;4.456;2023-07-16T04:31:51;9.40;;;5.97;;
9496;SDS011;4786;51.270;4.456;2023-07-16T04:34:17;12.03;;;5.90;;
9496;SDS011;4786;51.270;4.456;2023-07-16T04:36:44;10.30;;;5.50;;
9496;SDS011;4786;51.270;4.456;2023-07-16T04:39:09;8.97;;;5.73;;
9496;SDS011;4786;51.270;4.456;2023-07-16T04:41:36;9.23;;;6.00;;
9496;SDS011;4786;51.270;4.456;2023-07-16T04:44:02;9.77;;;6.27;;
9496;SDS011;4786;51.270;4.456;2023-07-16T04:46:28;10.03;;;5.57;;
9496;SDS011;4786;51.270;4.456;2023-07-16T04:48:55;9.00;;;5.53;;
9496;SDS011;4786;51.270;4.456;2023-07-16T04:51:21;11.43;;;5.77;;
9496;SDS011;4786;51.270;4.456;2023-07-16T04:53:47;11.43;;;5.87;;
9496;SDS011;4786;51.270;4.456;2023-07-16T04:56:14;12.97;;;5.47;;
9496;SDS011;4786;51.270;4.456;2023-07-16T04:58:41;9.47;;;5.77;;
9496;SDS011;4786;51.270;4.456;2023-07-16T05:01:08;10.90;;;6.10;;
9496;SDS011;4786;51.270;4.456;2023-07-16T05:03:35;11.30;;;6.07;;
9496;SDS011;4786;51.270;4.456;2023-07-16T05:06:01;11.13;;;6.47;;
9496;SDS011;4786;51.270;4.456;2023-07-16T05:08:28;13.07;;;6.00;;
9496;SDS011;4786;51.270;4.456;2023-07-16T05:10:54;9.03;;;6.00;;
9496;SDS011;4786;51.270;4.456;2023-07-16T05:13:21;10.33;;;6.23;;
9496;SDS011;4786;51.270;4.456;2023-07-16T05:15:46;20.00;;;6.60;;
9496;SDS011;4786;51.270;4.456;2023-07-16T05:18:12;10.77;;;5.87;;
9496;SDS011;4786;51.270;4.456;2023-07-16T05:20:37;9.70;;;5.90;;
9496;SDS011;4786;51.270;4.456;2023-07-16T05:23:04;6.63;;;5.80;;
9496;SDS011;4786;51.270;4.456;2023-07-16T05:25:30;10.82;;;5.85;;
9496;SDS011;4786;51.270;4.456;2023-07-16T05:27:55;8.85;;;5.10;;
9496;SDS011;4786;51.270;4.456;2023-07-16T05:30:22;8.80;;;4.78;;
9496;SDS011;4786;51.270;4.456;2023-07-16T05:32:48;11.00;;;5.03;;
9496;SDS011;4786;51.270;4.456;2023-07-16T05:35:14;8.10;;;5.32;;
9496;SDS011;4786;51.270;4.456;2023-07-16T05:37:40;6.78;;;5.18;;
9496;SDS011;4786;51.270;4.456;2023-07-16T05:40:06;7.38;;;4.88;;
9496;SDS011;4786;51.270;4.456;2023-07-16T05:42:33;7.10;;;5.25;;
9496;SDS011;4786;51.270;4.456;2023-07-16T05:44:59;8.68;;;5.15;;
9496;SDS011;4786;51.270;4.456;2023-07-16T05:47:25;7.53;;;5.15;;
9496;SDS011;4786;51.270;4.456;2023-07-16T05:49:51;8.98;;;5.85;;
9496;SDS011;4786;51.270;4.456;2023-07-16T05:52:17;7.18;;;5.30;;
9496;SDS011;4786;51.270;4.456;2023-07-16T05:54:43;10.07;;;5.20;;
9496;SDS011;4786;51.270;4.456;2023-07-16T05:57:10;7.72;;;5.30;;
9496;SDS011;4786;51.270;4.456;2023-07-16T05:59:36;7.05;;;4.95;;
9496;SDS011;4786;51.270;4.456;2023-07-16T06:02:05;9.07;;;5.70;;
9496;SDS011;4786;51.270;4.456;2023-07-16T06:04:31;8.88;;;5.10;;
9496;SDS011;4786;51.270;4.456;2023-07-16T06:06:57;5.75;;;5.00;;
9496;SDS011;4786;51.270;4.456;2023-07-16T06:09:23;6.40;;;5.00;;
9496;SDS011;4786;51.270;4.456;2023-07-16T06:11:49;6.60;;;5.22;;
9496;SDS011;4786;51.270;4.456;2023-07-16T06:14:15;9.88;;;5.45;;
9496;SDS011;4786;51.270;4.456;2023-07-16T06:16:41;5.95;;;4.93;;
9496;SDS011;4786;51.270;4.456;2023-07-16T06:19:07;8.07;;;5.05;;
9496;SDS011;4786;51.270;4.456;2023-07-16T06:21:33;7.15;;;4.90;;
9496;SDS011;4786;51.270;4.456;2023-07-16T06:23:58;7.95;;;4.80;;
9496;SDS011;4786;51.270;4.456;2023-07-16T06:26:25;9.70;;;5.35;;
9496;SDS011;4786;51.270;4.456;2023-07-16T06:28:50;6.78;;;5.10;;
9496;SDS011;4786;51.270;4.456;2023-07-16T06:31:16;7.88;;;5.10;;
9496;SDS011;4786;51.270;4.456;2023-07-16T06:33:43;8.45;;;5.43;;
9496;SDS011;4786;51.270;4.456;2023-07-16T06:36:11;9.38;;;5.03;;
9496;SDS011;4786;51.270;4.456;2023-07-16T06:38:39;11.05;;;5.70;;
9496;SDS011;4786;51.270;4.456;2023-07-16T06:41:06;9.13;;;4.88;;
9496;SDS011;4786;51.270;4.456;2023-07-16T06:43:32;10.65;;;5.18;;
9496;SDS011;4786;51.270;4.456;2023-07-16T06:45:58;6.78;;;5.20;;
9496;SDS011;4786;51.270;4.456;2023-07-16T06:48:24;8.48;;;4.90;;
9496;SDS011;4786;51.270;4.456;2023-07-16T06:50:50;7.88;;;4.90;;
9496;SDS011;4786;51.270;4.456;2023-07-16T06:53:16;8.65;;;5.45;;
9496;SDS011;4786;51.270;4.456;2023-07-16T06:55:42;7.15;;;5.20;;
9496;SDS011;4786;51.270;4.456;2023-07-16T06:58:11;9.45;;;5.28;;
9496;SDS011;4786;51.270;4.456;2023-07-16T07:00:39;9.18;;;5.32;;
9496;SDS011;4786;51.270;4.456;2023-07-16T07:03:05;11.65;;;5.20;;
9496;SDS011;4786;51.270;4.456;2023-07-16T07:05:31;8.10;;;5.45;;
9496;SDS011;4786;51.270;4.456;2023-07-16T07:07:57;7.63;;;4.43;;
9496;SDS011;4786;51.270;4.456;2023-07-16T07:10:24;8.50;;;5.25;;
9496;SDS011;4786;51.270;4.456;2023-07-16T07:12:50;7.88;;;4.75;;
9496;SDS011;4786;51.270;4.456;2023-07-16T07:15:16;6.03;;;4.72;;
9496;SDS011;4786;51.270;4.456;2023-07-16T07:17:42;9.48;;;5.05;;
9496;SDS011;4786;51.270;4.456;2023-07-16T07:20:08;10.32;;;5.65;;
9496;SDS011;4786;51.270;4.456;2023-07-16T07:22:34;8.40;;;5.47;;
9496;SDS011;4786;51.270;4.456;2023-07-16T07:25:00;8.60;;;5.53;;
9496;SDS011;4786;51.270;4.456;2023-07-16T07:27:26;12.55;;;5.53;;
9496;SDS011;4786;51.270;4.456;2023-07-16T07:29:52;8.27;;;6.15;;
9496;SDS011;4786;51.270;4.456;2023-07-16T07:32:20;8.82;;;5.95;;
9496;SDS011;4786;51.270;4.456;2023-07-16T07:34:47;8.40;;;5.70;;
9496;SDS011;4786;51.270;4.456;2023-07-16T07:37:13;10.15;;;6.10;;
9496;SDS011;4786;51.270;4.456;2023-07-16T07:39:39;10.73;;;6.45;;
9496;SDS011;4786;51.270;4.456;2023-07-16T07:42:05;14.07;;;6.70;;
9496;SDS011;4786;51.270;4.456;2023-07-16T07:44:32;9.65;;;6.43;;
9496;SDS011;4786;51.270;4.456;2023-07-16T07:46:57;11.05;;;6.07;;
9496;SDS011;4786;51.270;4.456;2023-07-16T07:49:23;9.25;;;5.97;;
9496;SDS011;4786;51.270;4.456;2023-07-16T07:51:49;9.02;;;6.40;;
9496;SDS011;4786;51.270;4.456;2023-07-16T07:54:16;13.52;;;6.35;;
9496;SDS011;4786;51.270;4.456;2023-07-16T07:56:41;10.73;;;6.65;;
9496;SDS011;4786;51.270;4.456;2023-07-16T07:59:07;11.50;;;6.72;;
9496;SDS011;4786;51.270;4.456;2023-07-16T08:01:33;9.18;;;5.60;;
9496;SDS011;4786;51.270;4.456;2023-07-16T08:03:59;11.60;;;6.93;;
9496;SDS011;4786;51.270;4.456;2023-07-16T08:06:25;10.52;;;6.43;;
9496;SDS011;4786;51.270;4.456;2023-07-16T08:08:51;11.55;;;6.13;;
9496;SDS011;4786;51.270;4.456;2023-07-16T08:11:17;8.00;;;5.90;;
9496;SDS011;4786;51.270;4.456;2023-07-16T08:13:43;9.02;;;6.10;;
9496;SDS011;4786;51.270;4.456;2023-07-16T08:16:09;11.80;;;5.50;;
9496;SDS011;4786;51.270;4.456;2023-07-16T08:18:35;10.80;;;5.97;;
9496;SDS011;4786;51.270;4.456;2023-07-16T08:21:01;9.93;;;6.43;;
9496;SDS011;4786;51.270;4.456;2023-07-16T08:23:27;11.38;;;6.32;;
9496;SDS011;4786;51.270;4.456;2023-07-16T08:25:53;9.20;;;6.68;;
9496;SDS011;4786;51.270;4.456;2023-07-16T08:28:19;10.50;;;6.30;;
9496;SDS011;4786;51.270;4.456;2023-07-16T08:30:48;12.40;;;6.35;;
9496;SDS011;4786;51.270;4.456;2023-07-16T08:33:14;11.80;;;6.68;;
9496;SDS011;4786;51.270;4.456;2023-07-16T08:35:41;10.77;;;5.97;;
9496;SDS011;4786;51.270;4.456;2023-07-16T08:38:07;10.27;;;5.63;;
9496;SDS011;4786;51.270;4.456;2023-07-16T08:40:36;12.77;;;6.32;;
9496;SDS011;4786;51.270;4.456;2023-07-16T08:43:02;9.50;;;5.95;;
9496;SDS011;4786;51.270;4.456;2023-07-16T08:45:30;10.80;;;6.25;;
9496;SDS011;4786;51.270;4.456;2023-07-16T08:48:01;9.93;;;5.85;;
9496;SDS011;4786;51.270;4.456;2023-07-16T08:50:28;12.45;;;6.30;;
9496;SDS011;4786;51.270;4.456;2023-07-16T08:52:55;12.13;;;6.55;;
9496;SDS011;4786;51.270;4.456;2023-07-16T08:55:21;17.27;;;6.97;;
9496;SDS011;4786;51.270;4.456;2023-07-16T08:57:48;9.38;;;6.18;;
9496;SDS011;4786;51.270;4.456;2023-07-16T09:00:14;11.85;;;6.40;;
9496;SDS011;4786;51.270;4.456;2023-07-16T09:02:40;9.73;;;6.20;;
9496;SDS011;4786;51.270;4.456;2023-07-16T09:05:07;10.15;;;6.13;;
9496;SDS011;4786;51.270;4.456;2023-07-16T09:07:35;9.68;;;5.32;;
9496;SDS011;4786;51.270;4.456;2023-07-16T09:10:02;10.88;;;5.40;;
9496;SDS011;4786;51.270;4.456;2023-07-16T09:12:29;7.90;;;5.55;;
9496;SDS011;4786;51.270;4.456;2023-07-16T09:14:55;7.65;;;5.28;;
9496;SDS011;4786;51.270;4.456;2023-07-16T09:17:22;8.75;;;5.43;;
9496;SDS011;4786;51.270;4.456;2023-07-16T09:19:49;10.23;;;5.45;;
9496;SDS011;4786;51.270;4.456;2023-07-16T09:22:19;10.57;;;5.88;;
9496;SDS011;4786;51.270;4.456;2023-07-16T09:24:45;8.68;;;5.55;;
9496;SDS011;4786;51.270;4.456;2023-07-16T09:27:12;11.90;;;5.90;;
9496;SDS011;4786;51.270;4.456;2023-07-16T09:29:38;8.15;;;5.53;;
9496;SDS011;4786;51.270;4.456;2023-07-16T09:32:05;14.65;;;5.78;;
9496;SDS011;4786;51.270;4.456;2023-07-16T09:34:31;10.00;;;5.35;;
9496;SDS011;4786;51.270;4.456;2023-07-16T09:36:57;9.40;;;5.78;;
9496;SDS011;4786;51.270;4.456;2023-07-16T09:39:25;9.55;;;5.47;;
9496;SDS011;4786;51.270;4.456;2023-07-16T09:41:51;9.60;;;5.72;;
9496;SDS011;4786;51.270;4.456;2023-07-16T09:44:18;12.00;;;5.32;;
9496;SDS011;4786;51.270;4.456;2023-07-16T09:46:45;9.88;;;6.13;;
9496;SDS011;4786;51.270;4.456;2023-07-16T09:49:14;10.25;;;5.68;;
9496;SDS011;4786;51.270;4.456;2023-07-16T09:51:40;10.07;;;5.40;;
9496;SDS011;4786;51.270;4.456;2023-07-16T09:54:08;8.70;;;5.35;;
9496;SDS011;4786;51.270;4.456;2023-07-16T09:56:43;9.75;;;5.32;;
9496;SDS011;4786;51.270;4.456;2023-07-16T09:59:14;13.18;;;6.03;;
9496;SDS011;4786;51.270;4.456;2023-07-16T10:01:42;10.13;;;5.63;;
9496;SDS011;4786;51.270;4.456;2023-07-16T10:04:15;12.30;;;5.50;;
9496;SDS011;4786;51.270;4.456;2023-07-16T10:06:49;8.40;;;5.45;;
9496;SDS011;4786;51.270;4.456;2023-07-16T10:09:35;9.15;;;5.65;;
9496;SDS011;4786;51.270;4.456;2023-07-16T10:14:50;9.25;;;5.80;;
9496;SDS011;4786;51.270;4.456;2023-07-16T10:17:22;12.82;;;5.95;;
9496;SDS011;4786;51.270;4.456;2023-07-16T10:19:49;12.93;;;6.00;;
9496;SDS011;4786;51.270;4.456;2023-07-16T10:22:17;12.80;;;6.85;;
9496;SDS011;4786;51.270;4.456;2023-07-16T10:24:50;9.70;;;6.10;;
9496;SDS011;4786;51.270;4.456;2023-07-16T10:27:25;8.05;;;5.20;;
9496;SDS011;4786;51.270;4.456;2023-07-16T10:29:55;10.23;;;5.72;;
9496;SDS011;4786;51.270;4.456;2023-07-16T10:32:22;8.70;;;5.55;;
9496;SDS011;4786;51.270;4.456;2023-07-16T10:34:52;8.95;;;5.65;;
9496;SDS011;4786;51.270;4.456;2023-07-16T10:37:18;10.40;;;5.57;;
9496;SDS011;4786;51.270;4.456;2023-07-16T10:39:47;10.10;;;6.03;;
9496;SDS011;4786;51.270;4.456;2023-07-16T10:42:17;10.07;;;5.93;;
9496;SDS011;4786;51.270;4.456;2023-07-16T10:44:45;10.27;;;6.25;;
9496;SDS011;4786;51.270;4.456;2023-07-16T10:47:34;10.43;;;5.93;;
9496;SDS011;4786;51.270;4.456;2023-07-16T10:50:08;11.18;;;6.10;;
9496;SDS011;4786;51.270;4.456;2023-07-16T10:52:35;9.85;;;6.00;;
9496;SDS011;4786;51.270;4.456;2023-07-16T10:55:02;9.10;;;6.20;;
9496;SDS011;4786;51.270;4.456;2023-07-16T10:57:29;7.05;;;5.70;;
9496;SDS011;4786;51.270;4.456;2023-07-16T10:59:55;7.90;;;5.70;;
9496;SDS011;4786;51.270;4.456;2023-07-16T11:02:23;7.65;;;5.80;;
9496;SDS011;4786;51.270;4.456;2023-07-16T11:04:49;10.05;;;5.80;;
9496;SDS011;4786;51.270;4.456;2023-07-16T11:07:18;9.70;;;6.15;;
9496;SDS011;4786;51.270;4.456;2023-07-16T11:09:45;9.68;;;6.18;;
9496;SDS011;4786;51.270;4.456;2023-07-16T11:12:13;8.25;;;5.55;;
9496;SDS011;4786;51.270;4.456;2023-07-16T11:14:44;15.38;;;5.00;;
9496;SDS011;4786;51.270;4.456;2023-07-16T11:17:11;7.45;;;4.90;;
9496;SDS011;4786;51.270;4.456;2023-07-16T11:19:38;6.78;;;4.30;;
9496;SDS011;4786;51.270;4.456;2023-07-16T11:22:06;8.68;;;4.97;;
9496;SDS011;4786;51.270;4.456;2023-07-16T11:24:36;6.57;;;3.78;;
9496;SDS011;4786;51.270;4.456;2023-07-16T11:27:19;5.80;;;3.70;;
9496;SDS011;4786;51.270;4.456;2023-07-16T11:29:50;8.90;;;3.70;;
9496;SDS011;4786;51.270;4.456;2023-07-16T11:34:53;5.57;;;3.95;;
9496;SDS011;4786;51.270;4.456;2023-07-16T11:37:20;5.78;;;2.97;;
9496;SDS011;4786;51.270;4.456;2023-07-16T11:39:49;7.75;;;3.53;;
9496;SDS011;4786;51.270;4.456;2023-07-16T11:42:37;6.82;;;3.10;;
9496;SDS011;4786;51.270;4.456;2023-07-16T11:45:03;6.80;;;3.00;;
9496;SDS011;4786;51.270;4.456;2023-07-16T11:47:30;5.88;;;3.10;;
9496;SDS011;4786;51.270;4.456;2023-07-16T11:49:57;6.32;;;2.70;;
9496;SDS011;4786;51.270;4.456;2023-07-16T11:52:24;4.05;;;2.78;;
9496;SDS011;4786;51.270;4.456;2023-07-16T11:54:54;4.93;;;2.55;;
9496;SDS011;4786;51.270;4.456;2023-07-16T11:57:22;4.68;;;2.80;;
9496;SDS011;4786;51.270;4.456;2023-07-16T11:59:48;5.53;;;2.90;;
9496;SDS011;4786;51.270;4.456;2023-07-16T12:02:14;4.10;;;2.30;;
9496;SDS011;4786;51.270;4.456;2023-07-16T12:04:40;5.32;;;2.78;;
9496;SDS011;4786;51.270;4.456;2023-07-16T12:07:06;3.65;;;2.70;;
9496;SDS011;4786;51.270;4.456;2023-07-16T12:09:33;4.88;;;2.35;;
9496;SDS011;4786;51.270;4.456;2023-07-16T12:11:59;4.57;;;2.95;;
9496;SDS011;4786;51.270;4.456;2023-07-16T12:14:26;6.22;;;2.75;;
9496;SDS011;4786;51.270;4.456;2023-07-16T12:16:52;5.93;;;2.72;;
9496;SDS011;4786;51.270;4.456;2023-07-16T12:19:18;6.85;;;2.70;;
9496;SDS011;4786;51.270;4.456;2023-07-16T12:21:44;4.28;;;2.40;;
9496;SDS011;4786;51.270;4.456;2023-07-16T12:24:11;4.90;;;2.60;;
9496;SDS011;4786;51.270;4.456;2023-07-16T12:26:36;6.25;;;2.72;;
9496;SDS011;4786;51.270;4.456;2023-07-16T12:29:03;3.97;;;2.53;;
9496;SDS011;4786;51.270;4.456;2023-07-16T12:31:32;4.03;;;2.67;;
9496;SDS011;4786;51.270;4.456;2023-07-16T12:33:59;8.00;;;3.08;;
9496;SDS011;4786;51.270;4.456;2023-07-16T12:36:26;5.82;;;2.70;;
9496;SDS011;4786;51.270;4.456;2023-07-16T12:38:52;5.13;;;2.70;;
9496;SDS011;4786;51.270;4.456;2023-07-16T12:41:18;6.07;;;2.97;;
9496;SDS011;4786;51.270;4.456;2023-07-16T12:43:43;3.67;;;2.78;;
9496;SDS011;4786;51.270;4.456;2023-07-16T12:46:10;4.28;;;3.25;;
9496;SDS011;4786;51.270;4.456;2023-07-16T12:48:36;5.90;;;3.47;;
9496;SDS011;4786;51.270;4.456;2023-07-16T12:51:02;4.20;;;2.88;;
9496;SDS011;4786;51.270;4.456;2023-07-16T12:53:28;5.85;;;3.20;;
9496;SDS011;4786;51.270;4.456;2023-07-16T12:55:54;4.78;;;3.25;;
9496;SDS011;4786;51.270;4.456;2023-07-16T12:58:21;6.38;;;3.30;;
9496;SDS011;4786;51.270;4.456;2023-07-16T13:00:46;3.58;;;2.92;;
9496;SDS011;4786;51.270;4.456;2023-07-16T13:03:13;8.23;;;3.22;;
9496;SDS011;4786;51.270;4.456;2023-07-16T13:05:41;4.82;;;3.17;;
9496;SDS011;4786;51.270;4.456;2023-07-16T13:08:08;4.78;;;3.22;;
9496;SDS011;4786;51.270;4.456;2023-07-16T13:10:35;6.32;;;3.20;;
9496;SDS011;4786;51.270;4.456;2023-07-16T13:13:01;6.05;;;4.03;;
9496;SDS011;4786;51.270;4.456;2023-07-16T13:15:28;5.68;;;3.28;;
9496;SDS011;4786;51.270;4.456;2023-07-16T13:17:54;4.45;;;3.50;;
9496;SDS011;4786;51.270;4.456;2023-07-16T13:20:20;5.55;;;3.42;;
9496;SDS011;4786;51.270;4.456;2023-07-16T13:22:47;6.00;;;3.45;;
9496;SDS011;4786;51.270;4.456;2023-07-16T13:25:13;5.18;;;3.50;;
9496;SDS011;4786;51.270;4.456;2023-07-16T13:27:39;6.85;;;3.03;;
9496;SDS011;4786;51.270;4.456;2023-07-16T13:30:05;4.78;;;3.10;;
9496;SDS011;4786;51.270;4.456;2023-07-16T13:32:32;4.03;;;2.70;;
9496;SDS011;4786;51.270;4.456;2023-07-16T13:34:58;3.88;;;3.00;;
9496;SDS011;4786;51.270;4.456;2023-07-16T13:37:24;3.53;;;2.80;;
9496;SDS011;4786;51.270;4.456;2023-07-16T13:39:49;5.15;;;2.78;;
9496;SDS011;4786;51.270;4.456;2023-07-16T13:42:16;3.47;;;2.63;;
9496;SDS011;4786;51.270;4.456;2023-07-16T13:44:41;4.32;;;2.83;;
9496;SDS011;4786;51.270;4.456;2023-07-16T13:47:07;4.50;;;2.85;;
9496;SDS011;4786;51.270;4.456;2023-07-16T13:49:33;4.35;;;2.97;;
9496;SDS011;4786;51.270;4.456;2023-07-16T13:51:59;5.22;;;3.10;;
9496;SDS011;4786;51.270;4.456;2023-07-16T13:54:25;3.90;;;2.92;;
9496;SDS011;4786;51.270;4.456;2023-07-16T13:56:51;8.00;;;3.25;;
9496;SDS011;4786;51.270;4.456;2023-07-16T13:59:17;7.35;;;2.90;;
9496;SDS011;4786;51.270;4.456;2023-07-16T14:01:43;6.25;;;3.03;;
9496;SDS011;4786;51.270;4.456;2023-07-16T14:04:09;4.93;;;3.28;;
9496;SDS011;4786;51.270;4.456;2023-07-16T14:06:35;8.25;;;3.17;;
9496;SDS011;4786;51.270;4.456;2023-07-16T14:09:01;3.88;;;3.05;;
9496;SDS011;4786;51.270;4.456;2023-07-16T14:11:27;3.30;;;2.85;;
9496;SDS011;4786;51.270;4.456;2023-07-16T14:13:53;3.58;;;2.72;;
9496;SDS011;4786;51.270;4.456;2023-07-16T14:16:23;6.38;;;2.60;;
9496;SDS011;4786;51.270;4.456;2023-07-16T14:18:50;2.45;;;2.22;;
9496;SDS011;4786;51.270;4.456;2023-07-16T14:21:17;3.72;;;2.25;;
9496;SDS011;4786;51.270;4.456;2023-07-16T14:23:44;3.70;;;2.13;;
9496;SDS011;4786;51.270;4.456;2023-07-16T14:26:09;3.03;;;1.90;;
9496;SDS011;4786;51.270;4.456;2023-07-16T14:28:35;3.08;;;1.90;;
9496;SDS011;4786;51.270;4.456;2023-07-16T14:31:02;2.33;;;2.08;;
9496;SDS011;4786;51.270;4.456;2023-07-16T14:33:28;2.53;;;2.13;;
9496;SDS011;4786;51.270;4.456;2023-07-16T14:35:53;3.75;;;2.20;;
9496;SDS011;4786;51.270;4.456;2023-07-16T14:38:19;5.80;;;2.10;;
9496;SDS011;4786;51.270;4.456;2023-07-16T14:40:45;2.42;;;1.80;;
9496;SDS011;4786;51.270;4.456;2023-07-16T14:43:11;2.45;;;1.95;;
9496;SDS011;4786;51.270;4.456;2023-07-16T14:45:37;4.35;;;2.20;;
9496;SDS011;4786;51.270;4.456;2023-07-16T14:48:03;5.90;;;2.28;;
9496;SDS011;4786;51.270;4.456;2023-07-16T14:50:30;4.47;;;1.98;;
9496;SDS011;4786;51.270;4.456;2023-07-16T14:52:56;4.40;;;1.83;;
9496;SDS011;4786;51.270;4.456;2023-07-16T14:55:21;3.75;;;1.92;;
9496;SDS011;4786;51.270;4.456;2023-07-16T14:57:50;2.72;;;2.08;;
9496;SDS011;4786;51.270;4.456;2023-07-16T15:00:16;3.78;;;2.10;;
9496;SDS011;4786;51.270;4.456;2023-07-16T15:02:42;3.30;;;2.10;;
9496;SDS011;4786;51.270;4.456;2023-07-16T15:05:08;6.15;;;2.30;;
9496;SDS011;4786;51.270;4.456;2023-07-16T15:07:35;5.28;;;2.00;;
9496;SDS011;4786;51.270;4.456;2023-07-16T15:10:02;7.57;;;2.20;;
9496;SDS011;4786;51.270;4.456;2023-07-16T15:12:31;4.03;;;2.15;;
9496;SDS011;4786;51.270;4.456;2023-07-16T15:14:56;3.47;;;2.28;;
9496;SDS011;4786;51.270;4.456;2023-07-16T15:17:23;4.28;;;1.95;;
9496;SDS011;4786;51.270;4.456;2023-07-16T15:19:49;2.88;;;1.98;;